Sawpit, Colorado
Current Conditions -  °F | °C
As of 6:53 AM on Thursday 23 Oct 2014 (Local Time) from KMTJ Reporting Station
Clear Clear  
Wind Chill: 33°   Ceiling: Unl
Heat Index: 38°   Visibility: 10mi
Dew Point: 33°   Wind: 7mph
Humidity: 83%   Direction: 140°SE
Pressure: 30.28"   Gusts: NA
Location:  37.9189°N, 107.878°W
Report Text: KMTJ 231253Z AUTO 14006KT 10SM CLR 03/01 A3028 RMK AO2 SLP219 T00330006
Loading
Personal Weather Stations






























Interactive Weather Map
Tropical Storm Tracking
New forecast layout! Learn more

10-Day Weather Forecast

Advertisements
Track Severe Weather on mobile